ZUCK Airport Information

Runway Information
Runway 02 Length 10499 ft width 148 ft
Elevation 1352 ft Threshold 0 ft Heading 17
Runway 20 Length 10499 ft Width 148 ft
Elevation 1348 ft Threshold 0 ft Heading 197
Airport Frequencies
Type APP Name CHONGQING Frequency 125.2 MHZ
Type ATIS Name ATIS Frequency 126.4 MHZ
Type GND Name CHONGQING Frequency 121.75 MHZ
Type TWR Name CHONGQING Frequency 118.2 MHZ
Airport Navaids
Type VOR-DME Name Chongqing Frequency 116100 KHZ
Type NDB Name Tongjingchang Frequency 241 KHZ
Type NDB Name Changshengqiao Frequency 306 KHZ
Airport Weather Information & NOTAM
ADDS - METARS form results

(2101 UTC 19 September 2020)
Data provider http://aviationweather.gov/metar/data/
 
Forecast for: ZUCK (CHONGQING/CHUNGK, CN)
Text: TAF ZUCK 191501Z 1918/2018 06003MPS 6000 SCT050 TX28/2007Z TN22/1921Z
Forecast period: 1800 UTC 19 September 2020 to 1800 UTC 20 September 2020
Forecast type: FROM: standard forecast or significant change
Winds: from the ENE (60 degrees) at 7 MPH (6 knots; 3.1 m/s)
Visibility: 4 miles (6 km)
Ceiling: at least 12,000 feet AGL
Clouds: scattered clouds at 5000 feet AGL
Weather: no significant weather forecast for this period